Time;durP1;ratioP1;P1;durP2;ratioP2;P2;SDS_P1;SDS_P2;PMS_P1;PMS_P2;Temp;Humidity;BMP_temperature;BMP_pressure;BME280_temperature;BME280_humidity;BME280_pressure;Samples;Min_cycle;Max_cycle;Signal;HPM_P1;HPM_P2
2022/03/23 00:00:44;;;;;;;54.03;25.43;;;;;;;;;;5061904;28;20031;-68
2022/03/23 00:06:13;;;;;;;48.57;25.00;;;;;;;;;;5061333;28;20121;-68
2022/03/23 00:11:54;;;;;;;50.77;25.07;;;;;;;;;;5059436;28;20409;-68
2022/03/23 00:17:27;;;;;;;47.83;25.07;;;;;;;;;;5060179;28;20066;-68
2022/03/23 00:22:55;;;;;;;46.67;25.37;;;;;;;;;;5061504;28;20943;-68
2022/03/23 00:43:56;;;;;;;47.23;24.70;;;;;;;;;;5022325;28;20196;-68
2022/03/23 00:49:23;;;;;;;47.17;24.13;;;;;;;;;;5021712;28;20029;-68
2022/03/23 01:00:38;;;;;;;46.63;23.73;;;;;;;;;;5064888;28;20512;-68
2022/03/23 01:06:07;;;;;;;52.90;24.67;;;;;;;;;;5064521;28;20432;-68
2022/03/23 01:15:15;;;;;;;52.47;24.73;;;;;;;;;;5059502;28;20031;-68
2022/03/23 01:21:10;;;;;;;50.13;23.80;;;;;;;;;;5019125;28;20028;-68
2022/03/23 01:26:38;;;;;;;44.77;24.30;;;;;;;;;;5015375;28;20138;-68
2022/03/23 01:32:08;;;;;;;48.23;24.10;;;;;;;;;;5014294;28;20071;-68
2022/03/23 01:37:37;;;;;;;49.03;24.27;;;;;;;;;;5002175;28;20024;-68
2022/03/23 01:43:05;;;;;;;43.33;24.03;;;;;;;;;;5002395;28;20580;-68
2022/03/23 01:48:33;;;;;;;42.87;23.23;;;;;;;;;;5002626;28;20037;-67
2022/03/23 01:53:34;;;;;;;46.50;23.77;;;;;;;;;;5081636;28;20039;-68
2022/03/23 01:56:00;;;;;;;41.13;23.40;;;;;;;;;;5083502;28;20032;-68
2022/03/23 01:58:25;;;;;;;46.27;24.30;;;;;;;;;;5083350;28;20042;-68
2022/03/23 02:00:51;;;;;;;45.67;22.77;;;;;;;;;;5083626;28;20504;-70
2022/03/23 02:03:16;;;;;;;40.07;22.00;;;;;;;;;;5082611;28;20032;-70
2022/03/23 02:05:41;;;;;;;51.23;23.67;;;;;;;;;;5082580;28;20032;-70
2022/03/23 02:08:06;;;;;;;41.60;22.53;;;;;;;;;;5083393;28;20064;-70
2022/03/23 02:10:32;;;;;;;42.00;21.97;;;;;;;;;;5080680;28;20126;-70
2022/03/23 02:12:57;;;;;;;41.80;21.97;;;;;;;;;;5081794;28;20071;-70
2022/03/23 02:15:25;;;;;;;44.17;23.23;;;;;;;;;;5082200;28;20110;-70
2022/03/23 02:17:53;;;;;;;40.33;22.10;;;;;;;;;;5089497;28;20100;-70
2022/03/23 02:20:19;;;;;;;39.90;22.17;;;;;;;;;;5080541;28;20024;-70
2022/03/23 02:22:44;;;;;;;45.60;23.40;;;;;;;;;;5080918;28;20491;-70
2022/03/23 02:25:09;;;;;;;42.13;23.27;;;;;;;;;;5080180;28;20522;-70
2022/03/23 02:27:36;;;;;;;44.33;24.20;;;;;;;;;;5082196;28;20034;-70
2022/03/23 02:30:02;;;;;;;41.67;23.33;;;;;;;;;;5082148;28;20093;-70
2022/03/23 02:32:28;;;;;;;43.80;23.30;;;;;;;;;;5082729;28;20024;-70
2022/03/23 02:34:54;;;;;;;42.00;22.73;;;;;;;;;;5081949;28;20030;-70
2022/03/23 02:37:19;;;;;;;43.33;23.13;;;;;;;;;;5082228;28;20034;-70
2022/03/23 02:39:44;;;;;;;45.67;24.53;;;;;;;;;;5081639;28;20118;-70
2022/03/23 02:42:10;;;;;;;41.53;22.77;;;;;;;;;;5084976;28;20042;-70
2022/03/23 02:44:35;;;;;;;43.20;24.20;;;;;;;;;;5081547;28;20459;-70
2022/03/23 02:47:01;;;;;;;47.67;22.90;;;;;;;;;;5081957;28;20034;-70
2022/03/23 02:49:26;;;;;;;37.53;22.60;;;;;;;;;;5081696;28;20019;-70
2022/03/23 02:51:51;;;;;;;43.47;23.60;;;;;;;;;;5081725;28;20505;-69
2022/03/23 03:02:59;;;;;;;48.80;23.03;;;;;;;;;;5080689;28;20178;-69
2022/03/23 03:05:25;;;;;;;47.63;23.83;;;;;;;;;;5081097;28;20513;-69
2022/03/23 03:10:34;;;;;;;43.63;24.70;;;;;;;;;;5081729;28;20069;-67
2022/03/23 03:12:59;;;;;;;49.43;24.73;;;;;;;;;;5081138;28;20024;-71
2022/03/23 03:15:25;;;;;;;44.73;23.70;;;;;;;;;;5081372;28;20032;-71
2022/03/23 03:17:50;;;;;;;48.07;24.23;;;;;;;;;;5083411;28;20027;-71
2022/03/23 03:20:16;;;;;;;46.17;23.27;;;;;;;;;;5082499;28;20126;-71
2022/03/23 03:22:42;;;;;;;46.00;25.00;;;;;;;;;;5081787;28;20384;-71
2022/03/23 03:25:11;;;;;;;43.53;24.50;;;;;;;;;;5078319;28;20042;-71
2022/03/23 03:27:37;;;;;;;48.50;23.83;;;;;;;;;;5079917;28;20012;-71
2022/03/23 03:30:05;;;;;;;42.43;23.80;;;;;;;;;;5079822;28;20032;-71
2022/03/23 03:32:31;;;;;;;48.50;24.10;;;;;;;;;;5079455;28;20658;-71
2022/03/23 03:34:56;;;;;;;42.93;23.57;;;;;;;;;;5076590;28;20034;-71
2022/03/23 03:37:28;;;;;;;44.70;23.10;;;;;;;;;;5079277;28;20023;-71
2022/03/23 03:39:53;;;;;;;46.25;24.95;;;;;;;;;;5080580;28;20028;-71
2022/03/23 03:42:19;;;;;;;48.10;25.23;;;;;;;;;;5080601;28;20043;-71
2022/03/23 03:44:45;;;;;;;44.30;25.40;;;;;;;;;;5080839;28;20024;-71
2022/03/23 03:47:10;;;;;;;50.57;24.30;;;;;;;;;;5080880;28;20419;-71
2022/03/23 03:49:36;;;;;;;50.17;25.80;;;;;;;;;;5080423;28;20030;-71
2022/03/23 03:52:01;;;;;;;50.17;25.90;;;;;;;;;;5081665;28;20525;-69
2022/03/23 03:54:26;;;;;;;51.43;25.97;;;;;;;;;;5085792;28;20023;-69
2022/03/23 03:56:52;;;;;;;45.20;24.27;;;;;;;;;;5079285;28;20496;-69
2022/03/23 03:59:17;;;;;;;50.83;26.17;;;;;;;;;;5080112;28;20520;-69
2022/03/23 04:01:42;;;;;;;48.37;25.97;;;;;;;;;;5079884;28;20545;-69
2022/03/23 04:04:08;;;;;;;47.43;24.77;;;;;;;;;;5080464;28;20093;-68
2022/03/23 04:06:33;;;;;;;57.47;25.57;;;;;;;;;;5079930;28;20085;-68
2022/03/23 04:08:58;;;;;;;54.90;25.57;;;;;;;;;;5080040;28;20156;-68
2022/03/23 04:11:23;;;;;;;50.10;25.73;;;;;;;;;;5080223;28;20020;-68
2022/03/23 04:13:49;;;;;;;46.80;25.23;;;;;;;;;;5080102;28;20658;-69
2022/03/23 04:16:14;;;;;;;58.00;26.97;;;;;;;;;;5080350;28;20089;-68
2022/03/23 04:18:39;;;;;;;55.37;26.77;;;;;;;;;;5080141;28;20047;-68
2022/03/23 04:21:05;;;;;;;56.93;26.43;;;;;;;;;;5079986;28;20496;-68
2022/03/23 04:23:30;;;;;;;56.57;26.53;;;;;;;;;;5092633;28;20420;-68
2022/03/23 04:25:56;;;;;;;52.20;24.77;;;;;;;;;;5084002;28;20050;-68
2022/03/23 04:28:21;;;;;;;55.17;26.67;;;;;;;;;;5080988;28;20020;-68
2022/03/23 04:30:47;;;;;;;50.70;26.47;;;;;;;;;;5079196;28;20016;-68
2022/03/23 04:33:13;;;;;;;58.23;25.57;;;;;;;;;;5080715;28;20161;-68
2022/03/23 04:35:38;;;;;;;53.93;25.73;;;;;;;;;;5080416;28;20417;-68
2022/03/23 04:38:03;;;;;;;56.90;27.07;;;;;;;;;;5083913;28;20032;-68
2022/03/23 04:40:28;;;;;;;57.40;27.03;;;;;;;;;;5078923;28;20036;-69
2022/03/23 04:42:54;;;;;;;58.47;27.83;;;;;;;;;;5077935;28;20051;-68
2022/03/23 04:45:19;;;;;;;50.17;26.27;;;;;;;;;;5074010;28;20024;-68
2022/03/23 04:47:45;;;;;;;54.43;27.03;;;;;;;;;;5077107;28;20024;-69
2022/03/23 04:50:11;;;;;;;51.00;25.43;;;;;;;;;;5078586;28;20074;-69
2022/03/23 04:52:37;;;;;;;48.33;24.47;;;;;;;;;;5079761;28;20040;-68
2022/03/23 04:55:03;;;;;;;47.77;24.07;;;;;;;;;;5080518;28;20683;-68
2022/03/23 04:57:28;;;;;;;45.80;25.60;;;;;;;;;;5079874;28;20055;-68
2022/03/23 04:59:54;;;;;;;50.87;26.13;;;;;;;;;;5079874;28;20031;-69
2022/03/23 05:02:19;;;;;;;47.37;26.43;;;;;;;;;;5079733;28;20642;-69
2022/03/23 05:04:45;;;;;;;47.60;25.93;;;;;;;;;;5079204;28;20081;-68
2022/03/23 05:07:11;;;;;;;48.30;26.03;;;;;;;;;;5079933;28;20024;-68
2022/03/23 05:09:36;;;;;;;49.27;25.83;;;;;;;;;;5079046;28;20078;-68
2022/03/23 05:12:01;;;;;;;53.87;26.00;;;;;;;;;;5076449;28;20036;-68
2022/03/23 05:14:26;;;;;;;51.97;26.20;;;;;;;;;;5072859;28;20663;-69
2022/03/23 05:16:52;;;;;;;50.50;25.80;;;;;;;;;;5079735;28;20028;-68
2022/03/23 05:19:17;;;;;;;48.83;25.77;;;;;;;;;;5079321;28;20028;-68
2022/03/23 05:21:42;;;;;;;49.83;24.37;;;;;;;;;;5084229;28;20114;-69
2022/03/23 05:24:07;;;;;;;52.67;24.57;;;;;;;;;;5079491;28;20020;-68
2022/03/23 05:26:33;;;;;;;48.93;24.67;;;;;;;;;;5083927;28;20027;-68
2022/03/23 05:28:58;;;;;;;44.17;23.97;;;;;;;;;;5082702;28;20082;-69
2022/03/23 05:31:23;;;;;;;50.47;23.70;;;;;;;;;;5081670;28;20135;-68
2022/03/23 05:33:48;;;;;;;46.30;24.37;;;;;;;;;;5080368;28;20020;-69
2022/03/23 05:36:14;;;;;;;39.33;23.17;;;;;;;;;;5081698;28;20035;-69
2022/03/23 05:38:39;;;;;;;47.63;24.00;;;;;;;;;;5081356;28;20405;-69
2022/03/23 05:41:04;;;;;;;54.10;23.83;;;;;;;;;;5081606;28;20035;-69
2022/03/23 05:43:30;;;;;;;40.70;21.60;;;;;;;;;;5081219;28;20032;-69
2022/03/23 05:45:55;;;;;;;41.57;21.67;;;;;;;;;;5081692;28;20052;-69
2022/03/23 05:48:20;;;;;;;45.47;21.93;;;;;;;;;;5082217;28;20087;-69
2022/03/23 05:50:46;;;;;;;45.13;22.70;;;;;;;;;;5082909;28;20028;-69
2022/03/23 05:53:11;;;;;;;43.40;22.07;;;;;;;;;;5082766;28;20040;-69
2022/03/23 05:55:36;;;;;;;43.27;22.40;;;;;;;;;;5083536;28;20038;-69
2022/03/23 05:58:03;;;;;;;36.70;20.27;;;;;;;;;;5064748;28;20040;-69
2022/03/23 06:00:29;;;;;;;38.47;20.47;;;;;;;;;;5082617;28;20016;-69
2022/03/23 06:02:54;;;;;;;38.57;20.57;;;;;;;;;;5088936;28;20024;-69
2022/03/23 06:05:19;;;;;;;42.77;22.07;;;;;;;;;;5082253;28;20032;-69
2022/03/23 06:07:45;;;;;;;39.30;21.57;;;;;;;;;;5078958;28;20027;-69
2022/03/23 06:10:11;;;;;;;45.03;21.90;;;;;;;;;;5085131;28;20012;-69
2022/03/23 06:12:36;;;;;;;41.23;20.87;;;;;;;;;;5092180;28;20438;-69
2022/03/23 06:15:02;;;;;;;35.03;20.83;;;;;;;;;;5080476;28;20032;-69
2022/03/23 06:17:27;;;;;;;40.07;21.27;;;;;;;;;;5082492;28;20024;-69
2022/03/23 06:19:52;;;;;;;39.93;20.43;;;;;;;;;;5083194;28;20035;-69
2022/03/23 06:22:18;;;;;;;40.13;20.20;;;;;;;;;;5082161;28;20516;-69
2022/03/23 06:24:43;;;;;;;36.40;19.37;;;;;;;;;;5082884;28;20169;-69
2022/03/23 06:27:08;;;;;;;33.37;17.83;;;;;;;;;;5081734;28;20020;-69
2022/03/23 06:29:34;;;;;;;32.43;18.20;;;;;;;;;;5082287;28;20421;-70
2022/03/23 06:31:59;;;;;;;35.67;18.10;;;;;;;;;;5091270;28;20539;-69
2022/03/23 06:34:24;;;;;;;30.00;17.43;;;;;;;;;;5098784;28;20695;-69
2022/03/23 06:36:50;;;;;;;28.73;17.53;;;;;;;;;;5083401;28;20027;-69
2022/03/23 06:39:15;;;;;;;30.33;17.93;;;;;;;;;;5082466;28;20670;-69
2022/03/23 06:41:40;;;;;;;33.07;17.87;;;;;;;;;;5083008;28;20074;-69
2022/03/23 06:44:05;;;;;;;30.27;17.63;;;;;;;;;;5082603;28;20024;-69
2022/03/23 06:46:31;;;;;;;29.93;17.57;;;;;;;;;;5082917;28;20437;-69
2022/03/23 06:48:56;;;;;;;28.70;16.90;;;;;;;;;;5082747;28;20072;-69
2022/03/23 06:51:21;;;;;;;29.90;18.73;;;;;;;;;;5079627;28;20028;-69
2022/03/23 06:53:46;;;;;;;38.57;21.37;;;;;;;;;;5081246;28;20028;-69
2022/03/23 06:56:12;;;;;;;31.57;18.57;;;;;;;;;;5081652;28;20035;-69
2022/03/23 06:58:37;;;;;;;33.33;20.70;;;;;;;;;;5081983;28;20024;-69
2022/03/23 07:01:03;;;;;;;31.03;19.17;;;;;;;;;;5080192;28;20028;-69
2022/03/23 07:03:28;;;;;;;31.57;18.00;;;;;;;;;;5082525;28;20020;-69
2022/03/23 07:05:53;;;;;;;29.80;18.23;;;;;;;;;;5081787;28;20028;-69
2022/03/23 07:11:03;;;;;;;30.50;18.23;;;;;;;;;;5081605;28;20069;-69
2022/03/23 07:13:28;;;;;;;29.70;17.25;;;;;;;;;;5082051;28;20016;-69
2022/03/23 07:15:54;;;;;;;30.30;18.63;;;;;;;;;;5080782;28;20606;-69
2022/03/23 07:18:19;;;;;;;26.88;16.60;;;;;;;;;;5081184;28;20034;-69
2022/03/23 07:20:44;;;;;;;28.58;17.55;;;;;;;;;;5081061;28;20027;-69
2022/03/23 07:23:10;;;;;;;26.60;17.08;;;;;;;;;;5081586;28;20407;-69
2022/03/23 07:25:35;;;;;;;29.52;16.70;;;;;;;;;;5082082;28;20024;-69
2022/03/23 07:28:02;;;;;;;31.13;17.10;;;;;;;;;;5086059;28;20043;-69
2022/03/23 07:30:27;;;;;;;28.88;17.33;;;;;;;;;;5081262;28;20040;-69
2022/03/23 07:32:53;;;;;;;26.25;17.52;;;;;;;;;;5082173;28;20538;-69
2022/03/23 07:35:18;;;;;;;26.95;16.88;;;;;;;;;;5080896;28;20023;-69
2022/03/23 07:37:44;;;;;;;25.33;17.42;;;;;;;;;;5081738;28;20028;-69
2022/03/23 07:40:09;;;;;;;25.33;16.73;;;;;;;;;;5081086;28;20032;-69
2022/03/23 07:42:35;;;;;;;26.08;16.65;;;;;;;;;;5081065;28;20031;-69
2022/03/23 07:45:00;;;;;;;24.15;17.38;;;;;;;;;;5081080;28;20106;-69
2022/03/23 07:47:25;;;;;;;26.17;16.90;;;;;;;;;;5078850;28;20184;-69
2022/03/23 07:49:51;;;;;;;24.75;17.35;;;;;;;;;;5078904;28;20020;-69
2022/03/23 07:52:18;;;;;;;25.95;16.58;;;;;;;;;;5080495;28;20139;-69
2022/03/23 07:54:43;;;;;;;24.95;15.65;;;;;;;;;;5080538;28;20028;-69
2022/03/23 07:57:08;;;;;;;28.20;17.17;;;;;;;;;;5081121;28;20605;-70
2022/03/23 07:59:34;;;;;;;25.30;17.58;;;;;;;;;;5079647;28;20024;-70
2022/03/23 08:01:59;;;;;;;23.67;16.77;;;;;;;;;;5080839;28;20020;-70
2022/03/23 08:04:24;;;;;;;25.23;16.88;;;;;;;;;;5081435;28;20020;-70
2022/03/23 08:06:50;;;;;;;28.10;16.63;;;;;;;;;;5080377;28;20468;-70
2022/03/23 08:09:15;;;;;;;33.30;16.95;;;;;;;;;;5081058;28;20622;-70
2022/03/23 08:11:40;;;;;;;23.05;15.98;;;;;;;;;;5080790;28;20023;-70
2022/03/23 08:14:05;;;;;;;25.05;16.13;;;;;;;;;;5081020;28;20032;-70
2022/03/23 08:16:31;;;;;;;24.42;17.73;;;;;;;;;;5079303;28;20024;-70
2022/03/23 08:18:56;;;;;;;24.65;16.92;;;;;;;;;;5081261;28;20028;-70
2022/03/23 08:21:22;;;;;;;25.73;16.42;;;;;;;;;;5081272;28;20031;-69
2022/03/23 08:23:48;;;;;;;23.65;16.45;;;;;;;;;;5081542;28;20055;-70
2022/03/23 08:26:14;;;;;;;28.63;16.08;;;;;;;;;;5081273;28;20703;-70
2022/03/23 08:28:40;;;;;;;23.38;15.88;;;;;;;;;;5081516;28;20084;-70
2022/03/23 08:31:05;;;;;;;26.02;16.50;;;;;;;;;;5080442;28;20016;-70
2022/03/23 08:33:34;;;;;;;23.20;15.60;;;;;;;;;;5081279;28;20031;-70
2022/03/23 08:35:59;;;;;;;26.27;18.10;;;;;;;;;;5096533;28;20023;-70
2022/03/23 08:38:25;;;;;;;26.98;16.20;;;;;;;;;;5087002;28;20024;-70
2022/03/23 08:40:50;;;;;;;26.40;16.60;;;;;;;;;;5085319;28;20024;-70
2022/03/23 08:43:15;;;;;;;24.10;16.08;;;;;;;;;;5081187;28;20024;-70
2022/03/23 08:45:41;;;;;;;21.67;16.13;;;;;;;;;;5080727;28;20169;-70
2022/03/23 08:48:06;;;;;;;29.10;15.98;;;;;;;;;;5081051;28;20039;-70
2022/03/23 08:50:31;;;;;;;22.45;16.63;;;;;;;;;;5081208;28;20039;-70
2022/03/23 08:52:57;;;;;;;22.92;15.40;;;;;;;;;;5080964;28;20749;-70
2022/03/23 08:55:24;;;;;;;20.52;15.77;;;;;;;;;;5080567;28;20073;-70
2022/03/23 08:57:50;;;;;;;21.92;15.77;;;;;;;;;;5081289;28;20124;-70
2022/03/23 09:00:15;;;;;;;20.95;15.82;;;;;;;;;;5081074;28;20099;-70
2022/03/23 09:02:41;;;;;;;25.92;16.50;;;;;;;;;;5084982;28;20016;-70
2022/03/23 09:05:09;;;;;;;20.80;15.63;;;;;;;;;;5084360;28;20016;-70
2022/03/23 09:07:35;;;;;;;23.10;15.80;;;;;;;;;;5085071;28;20100;-70
2022/03/23 09:10:01;;;;;;;22.40;16.23;;;;;;;;;;5084497;28;20512;-70
2022/03/23 09:12:26;;;;;;;41.55;16.67;;;;;;;;;;5084605;28;20016;-70
2022/03/23 09:14:51;;;;;;;24.00;16.17;;;;;;;;;;5084266;28;20023;-70
2022/03/23 09:17:17;;;;;;;23.15;14.88;;;;;;;;;;5084560;28;20039;-70
2022/03/23 09:19:42;;;;;;;22.17;16.25;;;;;;;;;;5093302;28;20020;-70
2022/03/23 09:22:07;;;;;;;24.25;15.93;;;;;;;;;;5082558;28;20016;-70
2022/03/23 09:24:33;;;;;;;23.08;15.70;;;;;;;;;;5084206;28;20027;-70
2022/03/23 09:26:58;;;;;;;21.92;15.95;;;;;;;;;;5084454;28;20020;-70
2022/03/23 09:29:23;;;;;;;21.15;15.40;;;;;;;;;;5083779;28;20414;-70
2022/03/23 09:31:48;;;;;;;22.15;14.82;;;;;;;;;;5084535;28;20020;-70
2022/03/23 09:34:14;;;;;;;21.92;15.50;;;;;;;;;;5083959;28;20122;-70
2022/03/23 09:39:23;;;;;;;21.70;15.77;;;;;;;;;;5084141;28;20031;-70
2022/03/23 09:41:48;;;;;;;20.55;15.30;;;;;;;;;;5084137;28;20024;-70
2022/03/23 09:44:14;;;;;;;23.65;14.65;;;;;;;;;;5084235;28;20036;-70
2022/03/23 09:46:40;;;;;;;20.40;14.85;;;;;;;;;;5084118;28;20679;-70
2022/03/23 09:49:09;;;;;;;20.20;15.73;;;;;;;;;;5084151;28;20028;-70
2022/03/23 09:51:35;;;;;;;22.13;14.80;;;;;;;;;;5084113;28;20036;-70
2022/03/23 09:54:01;;;;;;;22.05;15.88;;;;;;;;;;5083805;28;20020;-70
2022/03/23 09:56:26;;;;;;;17.73;14.27;;;;;;;;;;5084242;28;20099;-70
2022/03/23 09:58:51;;;;;;;20.20;15.00;;;;;;;;;;5084141;28;20035;-70
2022/03/23 10:01:26;;;;;;;23.50;14.32;;;;;;;;;;5083948;28;20579;-70
2022/03/23 10:03:51;;;;;;;19.40;14.20;;;;;;;;;;5084194;28;20683;-70
2022/03/23 10:06:34;;;;;;;19.27;13.32;;;;;;;;;;5083269;28;20107;-70
2022/03/23 10:09:29;;;;;;;19.30;13.52;;;;;;;;;;5083394;28;20030;-69
2022/03/23 10:12:13;;;;;;;21.75;15.00;;;;;;;;;;5083561;28;20026;-69
2022/03/23 10:14:47;;;;;;;24.02;15.18;;;;;;;;;;5083313;28;20031;-69
2022/03/23 10:17:31;;;;;;;21.02;14.90;;;;;;;;;;5083765;28;20401;-69
2022/03/23 10:19:56;;;;;;;21.30;14.80;;;;;;;;;;5083666;28;20700;-69
2022/03/23 10:22:25;;;;;;;25.65;16.52;;;;;;;;;;5083510;28;20103;-69
2022/03/23 10:24:50;;;;;;;21.48;15.10;;;;;;;;;;5082198;28;20514;-69
2022/03/23 10:27:17;;;;;;;22.92;15.02;;;;;;;;;;5082614;28;20114;-69
2022/03/23 10:29:47;;;;;;;20.42;14.48;;;;;;;;;;5083250;28;20020;-69
2022/03/23 10:32:13;;;;;;;21.70;14.80;;;;;;;;;;5083352;28;20024;-69
2022/03/23 10:34:47;;;;;;;23.02;15.23;;;;;;;;;;5085734;28;20043;-69
2022/03/23 10:37:13;;;;;;;21.00;15.00;;;;;;;;;;5089123;28;20024;-69
2022/03/23 10:39:38;;;;;;;21.02;14.30;;;;;;;;;;5082336;28;20024;-69
2022/03/23 10:42:12;;;;;;;22.00;14.98;;;;;;;;;;5083407;28;20024;-69
2022/03/23 10:44:39;;;;;;;22.25;14.90;;;;;;;;;;5082730;28;20020;-69
2022/03/23 10:47:04;;;;;;;27.55;15.07;;;;;;;;;;5096794;28;20103;-69
2022/03/23 10:49:31;;;;;;;22.45;15.30;;;;;;;;;;5081287;28;20127;-69
2022/03/23 10:52:06;;;;;;;21.67;15.00;;;;;;;;;;5082172;28;20155;-69
2022/03/23 10:54:31;;;;;;;22.02;14.23;;;;;;;;;;5082872;28;20596;-69
2022/03/23 10:56:56;;;;;;;21.70;14.60;;;;;;;;;;5082394;28;20026;-69
2022/03/23 10:59:23;;;;;;;18.45;13.73;;;;;;;;;;5082229;28;20032;-69
2022/03/23 11:02:00;;;;;;;22.10;13.88;;;;;;;;;;5079984;28;20013;-69
2022/03/23 11:04:29;;;;;;;20.58;14.95;;;;;;;;;;5082108;28;20013;-69
2022/03/23 11:06:56;;;;;;;19.95;13.90;;;;;;;;;;5082090;28;20034;-69
2022/03/23 11:18:12;;;;;;;20.85;13.52;;;;;;;;;;5081493;28;20511;-69
2022/03/23 11:20:40;;;;;;;24.77;13.45;;;;;;;;;;5081862;28;20055;-69
2022/03/23 11:23:15;;;;;;;20.60;13.38;;;;;;;;;;5082509;28;20023;-69
2022/03/23 11:25:40;;;;;;;21.25;13.93;;;;;;;;;;5080954;28;20086;-69
2022/03/23 11:28:05;;;;;;;21.25;13.98;;;;;;;;;;5082039;28;20495;-69
2022/03/23 11:30:31;;;;;;;21.33;14.18;;;;;;;;;;5082017;28;20036;-69
2022/03/23 11:32:56;;;;;;;22.08;13.75;;;;;;;;;;5082037;28;20076;-69
2022/03/23 11:35:22;;;;;;;20.05;13.95;;;;;;;;;;5081612;28;20420;-70
2022/03/23 11:37:48;;;;;;;19.85;14.20;;;;;;;;;;5082114;28;20031;-70
2022/03/23 11:40:13;;;;;;;20.48;14.05;;;;;;;;;;5082198;28;20435;-70
2022/03/23 11:42:38;;;;;;;20.50;14.38;;;;;;;;;;5082015;28;20038;-70
2022/03/23 11:45:04;;;;;;;21.17;13.88;;;;;;;;;;5080329;28;20039;-70
2022/03/23 11:48:05;;;;;;;21.55;15.15;;;;;;;;;;5081677;28;20020;-70
2022/03/23 11:50:41;;;;;;;20.67;14.45;;;;;;;;;;4959821;28;20042;-70
2022/03/23 11:53:25;;;;;;;21.42;15.27;;;;;;;;;;4959929;28;20043;-70
2022/03/23 11:55:52;;;;;;;20.98;14.85;;;;;;;;;;4958159;28;20026;-69
2022/03/23 11:58:21;;;;;;;23.38;15.82;;;;;;;;;;4959701;28;20065;-70
2022/03/23 12:00:53;;;;;;;21.67;14.85;;;;;;;;;;4959158;28;20027;-70
2022/03/23 12:03:42;;;;;;;22.08;15.38;;;;;;;;;;4945569;28;20035;-70
2022/03/23 12:06:33;;;;;;;21.73;15.23;;;;;;;;;;4951202;28;20046;-70
2022/03/23 12:08:59;;;;;;;25.08;14.20;;;;;;;;;;4957017;28;20516;-70
2022/03/23 12:11:43;;;;;;;20.52;14.00;;;;;;;;;;4959596;28;20042;-70
2022/03/23 12:14:18;;;;;;;23.92;14.18;;;;;;;;;;4959895;28;20023;-70
2022/03/23 12:16:47;;;;;;;22.23;14.50;;;;;;;;;;4959723;28;20049;-70
2022/03/23 12:19:32;;;;;;;20.88;14.00;;;;;;;;;;4959696;28;20570;-70
2022/03/23 12:21:58;;;;;;;22.38;14.35;;;;;;;;;;4958901;28;20046;-70
2022/03/23 12:24:35;;;;;;;20.50;14.35;;;;;;;;;;5010552;28;20036;-70
2022/03/23 12:27:05;;;;;;;23.88;15.52;;;;;;;;;;5080704;28;20038;-70
2022/03/23 12:29:34;;;;;;;22.35;15.20;;;;;;;;;;5080803;28;20510;-71
2022/03/23 12:32:05;;;;;;;19.05;13.48;;;;;;;;;;5080388;28;20432;-72
2022/03/23 12:34:31;;;;;;;17.02;12.73;;;;;;;;;;5081107;28;20412;-72
2022/03/23 12:37:08;;;;;;;17.23;13.38;;;;;;;;;;5083307;28;20028;-72
2022/03/23 12:39:37;;;;;;;18.52;12.98;;;;;;;;;;5101189;28;20070;-72
2022/03/23 12:42:12;;;;;;;17.90;13.02;;;;;;;;;;5064795;28;20043;-71
2022/03/23 12:44:39;;;;;;;17.77;13.10;;;;;;;;;;5079803;28;20028;-71
2022/03/23 12:47:08;;;;;;;19.23;12.95;;;;;;;;;;5081725;28;20050;-71
2022/03/23 12:58:06;;;;;;;16.85;12.73;;;;;;;;;;5084949;28;20587;-71
2022/03/23 13:00:33;;;;;;;19.00;12.63;;;;;;;;;;5083759;28;20028;-72
2022/03/23 13:03:07;;;;;;;19.00;12.48;;;;;;;;;;5082897;28;20037;-74
2022/03/23 13:05:33;;;;;;;18.88;13.25;;;;;;;;;;5083643;28;20123;-72
2022/03/23 13:07:58;;;;;;;19.35;13.50;;;;;;;;;;5083617;28;20035;-73
2022/03/23 13:10:27;;;;;;;17.77;14.02;;;;;;;;;;5083680;28;20154;-72
2022/03/23 13:13:05;;;;;;;18.60;14.25;;;;;;;;;;5084898;28;20491;-71
2022/03/23 13:15:30;;;;;;;17.90;13.88;;;;;;;;;;5083100;28;20095;-71
2022/03/23 13:17:57;;;;;;;19.70;13.40;;;;;;;;;;5080574;28;20417;-71
2022/03/23 13:20:25;;;;;;;18.52;13.75;;;;;;;;;;5082859;28;20085;-71
2022/03/23 13:22:53;;;;;;;22.38;14.15;;;;;;;;;;5086175;28;20032;-72
2022/03/23 13:25:18;;;;;;;19.52;14.20;;;;;;;;;;5081433;28;20028;-72
2022/03/23 13:27:44;;;;;;;18.73;14.25;;;;;;;;;;5084098;28;20024;-72
2022/03/23 13:30:13;;;;;;;19.02;13.70;;;;;;;;;;5084162;28;20631;-71
2022/03/23 13:32:40;;;;;;;19.27;14.13;;;;;;;;;;5084268;28;20047;-72
2022/03/23 13:35:19;;;;;;;19.13;14.20;;;;;;;;;;5084478;28;20024;-72
2022/03/23 13:37:56;;;;;;;17.58;13.80;;;;;;;;;;5084579;28;20028;-73
2022/03/23 13:43:37;;;;;;;17.90;13.75;;;;;;;;;;5020770;28;20039;-72
2022/03/23 13:46:03;;;;;;;19.50;14.23;;;;;;;;;;5020614;28;20037;-72
2022/03/23 13:48:33;;;;;;;18.70;14.80;;;;;;;;;;5020061;28;20026;-72
2022/03/23 13:50:59;;;;;;;21.08;14.15;;;;;;;;;;5020304;28;20030;-72
2022/03/23 13:53:25;;;;;;;19.17;13.98;;;;;;;;;;5020409;28;20388;-72
2022/03/23 13:55:54;;;;;;;18.98;13.95;;;;;;;;;;5020470;28;20036;-72
2022/03/23 13:58:20;;;;;;;19.40;13.90;;;;;;;;;;5020644;28;20025;-72
2022/03/23 14:00:50;;;;;;;19.98;13.23;;;;;;;;;;5020240;28;20037;-72
2022/03/23 14:03:19;;;;;;;18.55;13.90;;;;;;;;;;5020704;28;20033;-73
2022/03/23 14:06:02;;;;;;;22.38;14.18;;;;;;;;;;5020131;28;20045;-73
2022/03/23 14:08:28;;;;;;;17.65;13.85;;;;;;;;;;5019398;28;20021;-72
2022/03/23 14:10:53;;;;;;;21.00;13.75;;;;;;;;;;5016823;28;20017;-72
2022/03/23 14:13:18;;;;;;;19.95;13.38;;;;;;;;;;5020306;28;20026;-73
2022/03/23 14:15:50;;;;;;;26.65;14.90;;;;;;;;;;5016277;28;20033;-73
2022/03/23 14:18:16;;;;;;;17.75;13.73;;;;;;;;;;5033504;28;20039;-73
2022/03/23 14:20:53;;;;;;;17.67;13.35;;;;;;;;;;5081080;28;20019;-73
2022/03/23 14:23:19;;;;;;;19.50;13.98;;;;;;;;;;5063061;28;20164;-73
2022/03/23 14:25:46;;;;;;;26.30;14.95;;;;;;;;;;5075893;28;20070;-72
2022/03/23 14:28:19;;;;;;;31.40;13.82;;;;;;;;;;5082725;28;20040;-72
2022/03/23 14:30:51;;;;;;;19.08;13.68;;;;;;;;;;5096630;28;20107;-73
2022/03/23 14:33:18;;;;;;;19.27;14.65;;;;;;;;;;5103479;28;20020;-73
2022/03/23 14:35:44;;;;;;;18.52;14.50;;;;;;;;;;5087723;28;20026;-73
2022/03/23 14:38:18;;;;;;;19.77;14.15;;;;;;;;;;5080869;28;20118;-73
2022/03/23 14:40:45;;;;;;;23.98;14.20;;;;;;;;;;5082092;28;20254;-73
2022/03/23 14:43:29;;;;;;;22.30;14.30;;;;;;;;;;5081070;28;20464;-73
2022/03/23 14:45:55;;;;;;;22.00;14.25;;;;;;;;;;5080105;28;20043;-73
2022/03/23 14:48:27;;;;;;;21.50;13.98;;;;;;;;;;5081562;28;20036;-73
2022/03/23 14:50:54;;;;;;;20.30;13.45;;;;;;;;;;5081500;28;20012;-73
2022/03/23 14:53:27;;;;;;;19.55;14.10;;;;;;;;;;5082486;28;20109;-72
2022/03/23 14:55:56;;;;;;;21.10;14.55;;;;;;;;;;5082627;28;20622;-72
2022/03/23 14:58:23;;;;;;;18.90;13.95;;;;;;;;;;5082759;28;20022;-72
2022/03/23 15:00:48;;;;;;;21.02;13.90;;;;;;;;;;5080670;28;20028;-73
2022/03/23 15:03:13;;;;;;;18.83;14.20;;;;;;;;;;5082693;28;20036;-73
2022/03/23 15:13:50;;;;;;;17.42;13.30;;;;;;;;;;5085578;28;20568;-73
2022/03/23 15:16:17;;;;;;;18.45;13.00;;;;;;;;;;5079881;28;20131;-73
2022/03/23 15:18:42;;;;;;;21.35;13.73;;;;;;;;;;5078128;28;20020;-72
2022/03/23 15:21:08;;;;;;;18.45;13.63;;;;;;;;;;5055432;28;20412;-72
2022/03/23 15:23:33;;;;;;;19.42;13.93;;;;;;;;;;5071911;28;20032;-71
2022/03/23 15:25:58;;;;;;;18.88;13.80;;;;;;;;;;5074014;28;20043;-71
2022/03/23 15:28:23;;;;;;;20.55;14.00;;;;;;;;;;5074338;28;20521;-71
2022/03/23 15:30:49;;;;;;;22.73;14.15;;;;;;;;;;5075777;28;20032;-70
2022/03/23 15:33:17;;;;;;;20.52;14.10;;;;;;;;;;5072449;28;20027;-70
2022/03/23 15:35:43;;;;;;;22.85;14.25;;;;;;;;;;5079259;28;20146;-71
2022/03/23 15:38:09;;;;;;;18.58;13.85;;;;;;;;;;5079032;28;20146;-71
2022/03/23 15:40:35;;;;;;;20.48;13.63;;;;;;;;;;5079055;28;20028;-71
2022/03/23 15:43:03;;;;;;;18.25;14.27;;;;;;;;;;5078245;28;20208;-71
2022/03/23 15:45:29;;;;;;;20.35;14.20;;;;;;;;;;5079022;28;20032;-71
2022/03/23 15:47:54;;;;;;;20.40;14.70;;;;;;;;;;5079261;28;20024;-71
2022/03/23 15:50:21;;;;;;;23.58;15.45;;;;;;;;;;5079461;28;20071;-70
2022/03/23 15:52:46;;;;;;;20.25;14.95;;;;;;;;;;5079323;28;20047;-70
2022/03/23 15:55:12;;;;;;;19.38;13.73;;;;;;;;;;5079024;28;20036;-71
2022/03/23 15:57:37;;;;;;;20.80;14.32;;;;;;;;;;5078599;28;20036;-70
2022/03/23 16:00:03;;;;;;;20.83;14.40;;;;;;;;;;5079007;28;20028;-71
2022/03/23 16:02:35;;;;;;;22.38;14.15;;;;;;;;;;5079110;28;20810;-71
2022/03/23 16:05:00;;;;;;;19.00;14.07;;;;;;;;;;5079407;28;20040;-70
2022/03/23 16:07:26;;;;;;;20.52;14.48;;;;;;;;;;5078301;28;20020;-71
2022/03/23 16:09:51;;;;;;;23.10;14.52;;;;;;;;;;5078285;28;20034;-71
2022/03/23 16:12:16;;;;;;;21.55;14.32;;;;;;;;;;5079382;28;20031;-70
2022/03/23 16:14:41;;;;;;;20.05;13.93;;;;;;;;;;5078764;28;20451;-71